Terminal Aerodrome Forecast
Issued by NWS

Home | Current Version | Previous Version | Text Only | Print | Product List | Glossary On
Versions: 1 2 3 4 5 6 7 8 9 10 11 12 13 14 15 16
392
FTAK31 PAJN 232338
TAFAJN
TAF
PAJN 232338Z 2400/2424 11015G25KT P6SM -RA FEW006 SCT025 OVC035
      WS020/20025KT
      TEMPO 2402/2406 24010G22KT 4SM -RA BR SCT006 BKN025
     FM240600 12010G20KT 5SM -SHRA SCT010 BKN025 OVC035
     FM240800 10015G22KT 3SM -RA BR FEW005 BKN015 OVC025
     FM241200 10012KT 6SM -SHRA SCT025 BKN035 OVC050=

USA.gov is the U.S. government's official web portal to all federal, state and local government web resources and services.